sensor_id;sensor_type;location;lat;lon;timestamp;temperature;humidity
39777;DHT22;25453;48.162;14.510;2024-01-15T00:02:00;0.20;66.30
39777;DHT22;25453;48.162;14.510;2024-01-15T00:04:27;0.20;66.30
39777;DHT22;25453;48.162;14.510;2024-01-15T00:06:55;0.30;66.10
39777;DHT22;25453;48.162;14.510;2024-01-15T00:09:23;0.30;66.10
39777;DHT22;25453;48.162;14.510;2024-01-15T00:11:50;0.30;66.10
39777;DHT22;25453;48.162;14.510;2024-01-15T00:14:17;0.30;66.10
39777;DHT22;25453;48.162;14.510;2024-01-15T00:16:48;0.30;66.00
39777;DHT22;25453;48.162;14.510;2024-01-15T00:19:21;0.30;65.80
39777;DHT22;25453;48.162;14.510;2024-01-15T00:21:48;0.30;65.80
39777;DHT22;25453;48.162;14.510;2024-01-15T00:24:16;0.30;65.80
39777;DHT22;25453;48.162;14.510;2024-01-15T00:26:43;0.30;65.70
39777;DHT22;25453;48.162;14.510;2024-01-15T00:29:11;0.20;65.70
39777;DHT22;25453;48.162;14.510;2024-01-15T00:31:38;0.20;65.70
39777;DHT22;25453;48.162;14.510;2024-01-15T00:34:06;0.20;65.90
39777;DHT22;25453;48.162;14.510;2024-01-15T00:36:33;0.30;66.10
39777;DHT22;25453;48.162;14.510;2024-01-15T00:39:00;0.30;66.20
39777;DHT22;25453;48.162;14.510;2024-01-15T00:41:28;0.40;66.30
39777;DHT22;25453;48.162;14.510;2024-01-15T00:43:55;0.50;66.40
39777;DHT22;25453;48.162;14.510;2024-01-15T00:46:22;0.60;66.30
39777;DHT22;25453;48.162;14.510;2024-01-15T00:48:50;0.60;66.20
39777;DHT22;25453;48.162;14.510;2024-01-15T00:51:17;0.70;66.00
39777;DHT22;25453;48.162;14.510;2024-01-15T00:53:44;0.70;65.80
39777;DHT22;25453;48.162;14.510;2024-01-15T00:56:12;0.70;65.60
39777;DHT22;25453;48.162;14.510;2024-01-15T00:58:39;0.60;65.40
39777;DHT22;25453;48.162;14.510;2024-01-15T01:01:06;0.60;65.50
39777;DHT22;25453;48.162;14.510;2024-01-15T01:03:33;0.50;65.50
39777;DHT22;25453;48.162;14.510;2024-01-15T01:06:01;0.50;65.50
39777;DHT22;25453;48.162;14.510;2024-01-15T01:08:28;0.40;65.60
39777;DHT22;25453;48.162;14.510;2024-01-15T01:10:57;0.40;65.70
39777;DHT22;25453;48.162;14.510;2024-01-15T01:13:24;0.40;65.90
39777;DHT22;25453;48.162;14.510;2024-01-15T01:15:51;0.40;65.90
39777;DHT22;25453;48.162;14.510;2024-01-15T01:18:19;0.40;66.10
39777;DHT22;25453;48.162;14.510;2024-01-15T01:20:46;0.40;66.30
39777;DHT22;25453;48.162;14.510;2024-01-15T01:23:14;0.40;66.30
39777;DHT22;25453;48.162;14.510;2024-01-15T01:25:41;0.50;66.30
39777;DHT22;25453;48.162;14.510;2024-01-15T01:28:08;0.50;66.10
39777;DHT22;25453;48.162;14.510;2024-01-15T01:30:36;0.40;66.20
39777;DHT22;25453;48.162;14.510;2024-01-15T01:33:03;0.50;66.40
39777;DHT22;25453;48.162;14.510;2024-01-15T01:35:33;0.50;66.30
39777;DHT22;25453;48.162;14.510;2024-01-15T01:38:01;0.60;66.40
39777;DHT22;25453;48.162;14.510;2024-01-15T01:40:28;0.60;66.30
39777;DHT22;25453;48.162;14.510;2024-01-15T01:42:55;0.60;66.30
39777;DHT22;25453;48.162;14.510;2024-01-15T01:45:23;0.70;66.20
39777;DHT22;25453;48.162;14.510;2024-01-15T01:47:50;0.70;66.20
39777;DHT22;25453;48.162;14.510;2024-01-15T01:50:17;0.70;66.10
39777;DHT22;25453;48.162;14.510;2024-01-15T01:52:45;0.60;65.90
39777;DHT22;25453;48.162;14.510;2024-01-15T01:55:12;0.60;66.00
39777;DHT22;25453;48.162;14.510;2024-01-15T01:57:40;0.60;65.90
39777;DHT22;25453;48.162;14.510;2024-01-15T02:00:09;0.60;65.70
39777;DHT22;25453;48.162;14.510;2024-01-15T02:02:36;0.50;65.60
39777;DHT22;25453;48.162;14.510;2024-01-15T02:05:05;0.40;65.60
39777;DHT22;25453;48.162;14.510;2024-01-15T02:07:35;0.40;65.80
39777;DHT22;25453;48.162;14.510;2024-01-15T02:10:03;0.30;65.80
39777;DHT22;25453;48.162;14.510;2024-01-15T02:12:31;0.30;65.90
39777;DHT22;25453;48.162;14.510;2024-01-15T02:14:58;0.30;66.00
39777;DHT22;25453;48.162;14.510;2024-01-15T02:17:26;0.30;66.20
39777;DHT22;25453;48.162;14.510;2024-01-15T02:19:53;0.30;66.30
39777;DHT22;25453;48.162;14.510;2024-01-15T02:22:21;0.40;66.30
39777;DHT22;25453;48.162;14.510;2024-01-15T02:24:48;0.40;66.30
39777;DHT22;25453;48.162;14.510;2024-01-15T02:27:16;0.40;66.20
39777;DHT22;25453;48.162;14.510;2024-01-15T02:29:44;0.30;65.90
39777;DHT22;25453;48.162;14.510;2024-01-15T02:32:11;0.30;65.90
39777;DHT22;25453;48.162;14.510;2024-01-15T02:34:38;0.30;66.10
39777;DHT22;25453;48.162;14.510;2024-01-15T02:37:06;0.30;66.10
39777;DHT22;25453;48.162;14.510;2024-01-15T02:39:33;0.30;66.00
39777;DHT22;25453;48.162;14.510;2024-01-15T02:42:00;0.30;66.10
39777;DHT22;25453;48.162;14.510;2024-01-15T02:44:27;0.30;66.00
39777;DHT22;25453;48.162;14.510;2024-01-15T02:46:54;0.30;66.20
39777;DHT22;25453;48.162;14.510;2024-01-15T02:49:22;0.40;66.50
39777;DHT22;25453;48.162;14.510;2024-01-15T02:51:49;0.40;66.60
39777;DHT22;25453;48.162;14.510;2024-01-15T02:54:16;0.50;66.30
39777;DHT22;25453;48.162;14.510;2024-01-15T02:56:44;0.40;65.80
39777;DHT22;25453;48.162;14.510;2024-01-15T02:59:11;0.30;65.70
39777;DHT22;25453;48.162;14.510;2024-01-15T03:01:38;0.30;65.80
39777;DHT22;25453;48.162;14.510;2024-01-15T03:04:06;0.20;65.70
39777;DHT22;25453;48.162;14.510;2024-01-15T03:06:33;0.20;65.90
39777;DHT22;25453;48.162;14.510;2024-01-15T03:09:00;0.20;66.00
39777;DHT22;25453;48.162;14.510;2024-01-15T03:11:27;0.20;65.90
39777;DHT22;25453;48.162;14.510;2024-01-15T03:13:55;0.20;66.10
39777;DHT22;25453;48.162;14.510;2024-01-15T03:16:22;0.20;66.30
39777;DHT22;25453;48.162;14.510;2024-01-15T03:18:49;0.20;66.30
39777;DHT22;25453;48.162;14.510;2024-01-15T03:21:17;0.30;66.20
39777;DHT22;25453;48.162;14.510;2024-01-15T03:23:44;0.30;66.10
39777;DHT22;25453;48.162;14.510;2024-01-15T03:26:11;0.40;66.00
39777;DHT22;25453;48.162;14.510;2024-01-15T03:28:38;0.40;66.20
39777;DHT22;25453;48.162;14.510;2024-01-15T03:31:05;0.40;66.30
39777;DHT22;25453;48.162;14.510;2024-01-15T03:33:34;0.50;66.50
39777;DHT22;25453;48.162;14.510;2024-01-15T03:36:02;0.60;66.50
39777;DHT22;25453;48.162;14.510;2024-01-15T03:38:29;0.60;66.40
39777;DHT22;25453;48.162;14.510;2024-01-15T03:40:56;0.60;66.50
39777;DHT22;25453;48.162;14.510;2024-01-15T03:43:23;0.70;66.50
39777;DHT22;25453;48.162;14.510;2024-01-15T03:45:50;0.70;66.50
39777;DHT22;25453;48.162;14.510;2024-01-15T03:48:18;0.80;66.50
39777;DHT22;25453;48.162;14.510;2024-01-15T03:50:45;0.80;66.40
39777;DHT22;25453;48.162;14.510;2024-01-15T03:53:12;0.80;66.30
39777;DHT22;25453;48.162;14.510;2024-01-15T03:55:39;0.80;66.40
39777;DHT22;25453;48.162;14.510;2024-01-15T03:58:06;0.90;66.40
39777;DHT22;25453;48.162;14.510;2024-01-15T04:00:34;0.90;66.30
39777;DHT22;25453;48.162;14.510;2024-01-15T04:03:01;0.80;66.20
39777;DHT22;25453;48.162;14.510;2024-01-15T04:05:29;0.80;66.20
39777;DHT22;25453;48.162;14.510;2024-01-15T04:07:56;0.80;66.20
39777;DHT22;25453;48.162;14.510;2024-01-15T04:10:23;0.80;66.30
39777;DHT22;25453;48.162;14.510;2024-01-15T04:12:51;0.80;66.40
39777;DHT22;25453;48.162;14.510;2024-01-15T04:15:18;0.80;66.60
39777;DHT22;25453;48.162;14.510;2024-01-15T04:17:46;0.90;66.70
39777;DHT22;25453;48.162;14.510;2024-01-15T04:20:13;0.90;66.70
39777;DHT22;25453;48.162;14.510;2024-01-15T04:22:40;1.00;66.80
39777;DHT22;25453;48.162;14.510;2024-01-15T04:25:07;1.00;66.80
39777;DHT22;25453;48.162;14.510;2024-01-15T04:27:35;1.10;66.80
39777;DHT22;25453;48.162;14.510;2024-01-15T04:30:02;1.10;66.70
39777;DHT22;25453;48.162;14.510;2024-01-15T04:32:29;1.20;66.70
39777;DHT22;25453;48.162;14.510;2024-01-15T04:34:56;1.20;66.60
39777;DHT22;25453;48.162;14.510;2024-01-15T04:37:24;1.30;66.60
39777;DHT22;25453;48.162;14.510;2024-01-15T04:39:51;1.30;66.60
39777;DHT22;25453;48.162;14.510;2024-01-15T04:42:22;1.30;66.50
39777;DHT22;25453;48.162;14.510;2024-01-15T04:44:49;1.30;66.50
39777;DHT22;25453;48.162;14.510;2024-01-15T04:47:17;1.30;66.50
39777;DHT22;25453;48.162;14.510;2024-01-15T04:49:47;1.40;66.50
39777;DHT22;25453;48.162;14.510;2024-01-15T04:52:19;1.40;66.60
39777;DHT22;25453;48.162;14.510;2024-01-15T04:54:48;1.40;66.50
39777;DHT22;25453;48.162;14.510;2024-01-15T04:57:15;1.40;66.50
39777;DHT22;25453;48.162;14.510;2024-01-15T04:59:42;1.50;66.50
39777;DHT22;25453;48.162;14.510;2024-01-15T05:02:09;1.50;66.50
39777;DHT22;25453;48.162;14.510;2024-01-15T05:04:37;1.50;66.50
39777;DHT22;25453;48.162;14.510;2024-01-15T05:07:04;1.60;66.50
39777;DHT22;25453;48.162;14.510;2024-01-15T05:09:31;1.60;66.50
39777;DHT22;25453;48.162;14.510;2024-01-15T05:11:59;1.70;66.50
39777;DHT22;25453;48.162;14.510;2024-01-15T05:14:26;1.70;66.50
39777;DHT22;25453;48.162;14.510;2024-01-15T05:16:53;1.70;66.50
39777;DHT22;25453;48.162;14.510;2024-01-15T05:19:20;1.70;66.50
39777;DHT22;25453;48.162;14.510;2024-01-15T05:21:48;1.70;66.50
39777;DHT22;25453;48.162;14.510;2024-01-15T05:24:16;1.80;66.50
39777;DHT22;25453;48.162;14.510;2024-01-15T05:26:43;1.80;66.40
39777;DHT22;25453;48.162;14.510;2024-01-15T05:29:10;1.80;66.40
39777;DHT22;25453;48.162;14.510;2024-01-15T05:31:37;1.80;66.40
39777;DHT22;25453;48.162;14.510;2024-01-15T05:34:05;1.80;66.40
39777;DHT22;25453;48.162;14.510;2024-01-15T05:36:32;1.90;66.40
39777;DHT22;25453;48.162;14.510;2024-01-15T05:39:00;1.80;66.30
39777;DHT22;25453;48.162;14.510;2024-01-15T05:41:27;1.90;66.30
39777;DHT22;25453;48.162;14.510;2024-01-15T05:43:54;1.90;66.40
39777;DHT22;25453;48.162;14.510;2024-01-15T05:46:21;1.90;66.30
39777;DHT22;25453;48.162;14.510;2024-01-15T05:48:48;1.90;66.40
39777;DHT22;25453;48.162;14.510;2024-01-15T05:51:16;1.90;66.40
39777;DHT22;25453;48.162;14.510;2024-01-15T05:53:44;1.90;66.40
39777;DHT22;25453;48.162;14.510;2024-01-15T05:56:13;2.00;66.30
39777;DHT22;25453;48.162;14.510;2024-01-15T05:58:40;2.00;66.30
39777;DHT22;25453;48.162;14.510;2024-01-15T06:01:07;2.00;66.30
39777;DHT22;25453;48.162;14.510;2024-01-15T06:03:34;2.00;66.10
39777;DHT22;25453;48.162;14.510;2024-01-15T06:06:02;2.00;66.10
39777;DHT22;25453;48.162;14.510;2024-01-15T06:08:29;2.00;66.10
39777;DHT22;25453;48.162;14.510;2024-01-15T06:10:57;2.00;66.10
39777;DHT22;25453;48.162;14.510;2024-01-15T06:13:27;2.00;66.10
39777;DHT22;25453;48.162;14.510;2024-01-15T06:15:55;2.00;66.10
39777;DHT22;25453;48.162;14.510;2024-01-15T06:18:22;2.10;66.10
39777;DHT22;25453;48.162;14.510;2024-01-15T06:20:50;2.10;66.00
39777;DHT22;25453;48.162;14.510;2024-01-15T06:23:17;2.00;65.90
39777;DHT22;25453;48.162;14.510;2024-01-15T06:25:47;2.00;65.80
39777;DHT22;25453;48.162;14.510;2024-01-15T06:28:14;2.00;65.70
39777;DHT22;25453;48.162;14.510;2024-01-15T06:30:41;1.90;65.70
39777;DHT22;25453;48.162;14.510;2024-01-15T06:33:09;1.90;65.80
39777;DHT22;25453;48.162;14.510;2024-01-15T06:35:36;1.90;65.80
39777;DHT22;25453;48.162;14.510;2024-01-15T06:38:03;1.80;66.00
39777;DHT22;25453;48.162;14.510;2024-01-15T06:40:31;1.80;66.00
39777;DHT22;25453;48.162;14.510;2024-01-15T06:42:58;1.80;66.10
39777;DHT22;25453;48.162;14.510;2024-01-15T06:45:25;1.80;66.20
39777;DHT22;25453;48.162;14.510;2024-01-15T06:47:53;1.80;66.20
39777;DHT22;25453;48.162;14.510;2024-01-15T06:50:20;1.80;66.30
39777;DHT22;25453;48.162;14.510;2024-01-15T06:52:47;1.80;66.30
39777;DHT22;25453;48.162;14.510;2024-01-15T06:55:14;1.80;66.30
39777;DHT22;25453;48.162;14.510;2024-01-15T06:57:42;1.80;66.30
39777;DHT22;25453;48.162;14.510;2024-01-15T07:00:10;1.90;66.30
39777;DHT22;25453;48.162;14.510;2024-01-15T07:02:38;1.90;66.20
39777;DHT22;25453;48.162;14.510;2024-01-15T07:05:05;1.90;66.20
39777;DHT22;25453;48.162;14.510;2024-01-15T07:07:33;1.90;66.20
39777;DHT22;25453;48.162;14.510;2024-01-15T07:10:01;2.00;66.20
39777;DHT22;25453;48.162;14.510;2024-01-15T07:12:29;2.00;66.10
39777;DHT22;25453;48.162;14.510;2024-01-15T07:14:57;2.00;66.10
39777;DHT22;25453;48.162;14.510;2024-01-15T07:17:24;2.00;66.20
39777;DHT22;25453;48.162;14.510;2024-01-15T07:19:51;2.00;66.10
39777;DHT22;25453;48.162;14.510;2024-01-15T07:22:18;2.00;66.10
39777;DHT22;25453;48.162;14.510;2024-01-15T07:24:46;2.00;66.10
39777;DHT22;25453;48.162;14.510;2024-01-15T07:27:14;2.00;66.00
39777;DHT22;25453;48.162;14.510;2024-01-15T07:29:41;2.10;66.10
39777;DHT22;25453;48.162;14.510;2024-01-15T07:32:10;2.10;66.10
39777;DHT22;25453;48.162;14.510;2024-01-15T07:34:37;2.10;66.10
39777;DHT22;25453;48.162;14.510;2024-01-15T07:37:05;2.10;66.10
39777;DHT22;25453;48.162;14.510;2024-01-15T07:39:33;2.20;66.10
39777;DHT22;25453;48.162;14.510;2024-01-15T07:42:00;2.20;66.00
39777;DHT22;25453;48.162;14.510;2024-01-15T07:44:28;2.10;65.90
39777;DHT22;25453;48.162;14.510;2024-01-15T07:46:55;2.10;66.10
39777;DHT22;25453;48.162;14.510;2024-01-15T07:49:22;2.20;66.10
39777;DHT22;25453;48.162;14.510;2024-01-15T07:51:50;2.20;66.10
39777;DHT22;25453;48.162;14.510;2024-01-15T07:54:18;2.20;66.00
39777;DHT22;25453;48.162;14.510;2024-01-15T07:56:55;2.20;66.10
39777;DHT22;25453;48.162;14.510;2024-01-15T07:59:23;2.20;66.10
39777;DHT22;25453;48.162;14.510;2024-01-15T08:01:51;2.20;66.00
39777;DHT22;25453;48.162;14.510;2024-01-15T08:04:18;2.20;66.20
39777;DHT22;25453;48.162;14.510;2024-01-15T08:06:49;2.20;66.20
39777;DHT22;25453;48.162;14.510;2024-01-15T08:09:16;2.20;66.30
39777;DHT22;25453;48.162;14.510;2024-01-15T08:11:43;2.10;66.40
39777;DHT22;25453;48.162;14.510;2024-01-15T08:14:11;2.10;66.50
39777;DHT22;25453;48.162;14.510;2024-01-15T08:16:39;2.10;66.70
39777;DHT22;25453;48.162;14.510;2024-01-15T08:19:06;2.10;66.90
39777;DHT22;25453;48.162;14.510;2024-01-15T08:21:34;2.10;67.00
39777;DHT22;25453;48.162;14.510;2024-01-15T08:24:02;2.10;67.10
39777;DHT22;25453;48.162;14.510;2024-01-15T08:26:30;2.10;67.50
39777;DHT22;25453;48.162;14.510;2024-01-15T08:28:57;2.20;67.60
39777;DHT22;25453;48.162;14.510;2024-01-15T08:31:24;2.20;67.70
39777;DHT22;25453;48.162;14.510;2024-01-15T08:33:54;2.20;67.70
39777;DHT22;25453;48.162;14.510;2024-01-15T08:36:23;2.20;67.90
39777;DHT22;25453;48.162;14.510;2024-01-15T08:38:51;2.20;68.00
39777;DHT22;25453;48.162;14.510;2024-01-15T08:41:19;2.20;68.20
39777;DHT22;25453;48.162;14.510;2024-01-15T08:43:46;2.20;68.40
39777;DHT22;25453;48.162;14.510;2024-01-15T08:46:13;2.30;68.50
39777;DHT22;25453;48.162;14.510;2024-01-15T08:51:54;2.30;68.70
39777;DHT22;25453;48.162;14.510;2024-01-15T08:54:22;2.30;68.90
39777;DHT22;25453;48.162;14.510;2024-01-15T08:56:49;2.40;69.00
39777;DHT22;25453;48.162;14.510;2024-01-15T08:59:16;2.40;69.10
39777;DHT22;25453;48.162;14.510;2024-01-15T09:01:43;2.40;69.30
39777;DHT22;25453;48.162;14.510;2024-01-15T09:04:11;2.40;69.40
39777;DHT22;25453;48.162;14.510;2024-01-15T09:06:38;2.50;69.50
39777;DHT22;25453;48.162;14.510;2024-01-15T09:09:05;2.50;69.70
39777;DHT22;25453;48.162;14.510;2024-01-15T09:11:33;2.50;69.80
39777;DHT22;25453;48.162;14.510;2024-01-15T09:14:00;2.50;69.90
39777;DHT22;25453;48.162;14.510;2024-01-15T09:16:27;2.50;70.00
39777;DHT22;25453;48.162;14.510;2024-01-15T09:18:55;2.50;70.20
39777;DHT22;25453;48.162;14.510;2024-01-15T09:21:24;2.60;70.40
39777;DHT22;25453;48.162;14.510;2024-01-15T09:23:51;2.60;70.50
39777;DHT22;25453;48.162;14.510;2024-01-15T09:26:19;2.60;70.60
39777;DHT22;25453;48.162;14.510;2024-01-15T09:28:46;2.70;70.70
39777;DHT22;25453;48.162;14.510;2024-01-15T09:31:13;2.70;70.90
39777;DHT22;25453;48.162;14.510;2024-01-15T09:33:41;2.70;71.00
39777;DHT22;25453;48.162;14.510;2024-01-15T09:36:08;2.80;71.10
39777;DHT22;25453;48.162;14.510;2024-01-15T09:38:36;2.80;71.10
39777;DHT22;25453;48.162;14.510;2024-01-15T09:41:03;2.90;71.10
39777;DHT22;25453;48.162;14.510;2024-01-15T09:43:30;2.90;71.30
39777;DHT22;25453;48.162;14.510;2024-01-15T09:45:58;2.90;71.30
39777;DHT22;25453;48.162;14.510;2024-01-15T09:48:25;2.90;71.40
39777;DHT22;25453;48.162;14.510;2024-01-15T09:50:53;2.90;71.40
39777;DHT22;25453;48.162;14.510;2024-01-15T09:53:20;2.90;71.50
39777;DHT22;25453;48.162;14.510;2024-01-15T09:55:50;2.90;71.70
39777;DHT22;25453;48.162;14.510;2024-01-15T09:58:17;3.00;71.80
39777;DHT22;25453;48.162;14.510;2024-01-15T10:00:47;3.00;71.90
39777;DHT22;25453;48.162;14.510;2024-01-15T10:03:17;3.00;72.00
39777;DHT22;25453;48.162;14.510;2024-01-15T10:05:44;3.00;72.00
39777;DHT22;25453;48.162;14.510;2024-01-15T10:08:11;3.00;72.10
39777;DHT22;25453;48.162;14.510;2024-01-15T10:10:39;3.00;72.20
39777;DHT22;25453;48.162;14.510;2024-01-15T10:13:08;3.00;72.20
39777;DHT22;25453;48.162;14.510;2024-01-15T10:15:35;3.00;72.20
39777;DHT22;25453;48.162;14.510;2024-01-15T10:18:05;3.00;72.30
39777;DHT22;25453;48.162;14.510;2024-01-15T10:20:32;2.90;72.30
39777;DHT22;25453;48.162;14.510;2024-01-15T10:23:00;2.90;72.40
39777;DHT22;25453;48.162;14.510;2024-01-15T10:25:27;2.90;72.40
39777;DHT22;25453;48.162;14.510;2024-01-15T10:28:02;2.90;72.40
39777;DHT22;25453;48.162;14.510;2024-01-15T10:30:31;2.90;72.40
39777;DHT22;25453;48.162;14.510;2024-01-15T10:33:01;2.90;72.50
39777;DHT22;25453;48.162;14.510;2024-01-15T10:35:33;2.90;72.40
39777;DHT22;25453;48.162;14.510;2024-01-15T10:38:01;2.90;72.30
39777;DHT22;25453;48.162;14.510;2024-01-15T10:40:30;3.00;72.40
39777;DHT22;25453;48.162;14.510;2024-01-15T10:42:58;3.00;72.40
39777;DHT22;25453;48.162;14.510;2024-01-15T10:45:25;3.00;72.40
39777;DHT22;25453;48.162;14.510;2024-01-15T10:47:54;3.10;72.40
39777;DHT22;25453;48.162;14.510;2024-01-15T10:50:27;3.10;72.00
39777;DHT22;25453;48.162;14.510;2024-01-15T10:52:54;3.10;71.80
39777;DHT22;25453;48.162;14.510;2024-01-15T10:55:23;3.10;71.70
39777;DHT22;25453;48.162;14.510;2024-01-15T10:57:52;3.10;71.40
39777;DHT22;25453;48.162;14.510;2024-01-15T11:00:20;3.10;71.10
39777;DHT22;25453;48.162;14.510;2024-01-15T11:02:48;3.10;71.10
39777;DHT22;25453;48.162;14.510;2024-01-15T11:05:15;3.10;71.20
39777;DHT22;25453;48.162;14.510;2024-01-15T11:07:45;3.10;71.10
39777;DHT22;25453;48.162;14.510;2024-01-15T11:10:41;3.10;71.00
39777;DHT22;25453;48.162;14.510;2024-01-15T11:13:22;3.10;70.80
39777;DHT22;25453;48.162;14.510;2024-01-15T11:18:31;3.10;70.20
39777;DHT22;25453;48.162;14.510;2024-01-15T11:23:46;3.20;70.10
39777;DHT22;25453;48.162;14.510;2024-01-15T11:26:45;3.20;70.00
39777;DHT22;25453;48.162;14.510;2024-01-15T11:31:59;3.30;69.90
39777;DHT22;25453;48.162;14.510;2024-01-15T11:34:49;3.40;69.50
39777;DHT22;25453;48.162;14.510;2024-01-15T11:37:18;3.40;69.50
39777;DHT22;25453;48.162;14.510;2024-01-15T11:39:46;3.50;69.40
39777;DHT22;25453;48.162;14.510;2024-01-15T11:42:14;3.50;69.00
39777;DHT22;25453;48.162;14.510;2024-01-15T11:44:42;3.50;69.00
39777;DHT22;25453;48.162;14.510;2024-01-15T11:47:11;3.50;68.70
39777;DHT22;25453;48.162;14.510;2024-01-15T11:50:01;3.60;68.60
39777;DHT22;25453;48.162;14.510;2024-01-15T11:52:34;3.60;68.50
39777;DHT22;25453;48.162;14.510;2024-01-15T11:57:42;3.50;67.60
39777;DHT22;25453;48.162;14.510;2024-01-15T12:00:13;3.50;67.70
39777;DHT22;25453;48.162;14.510;2024-01-15T12:02:45;3.50;67.10
39777;DHT22;25453;48.162;14.510;2024-01-15T12:05:15;3.50;67.30
39777;DHT22;25453;48.162;14.510;2024-01-15T12:07:43;3.50;67.30
39777;DHT22;25453;48.162;14.510;2024-01-15T12:10:13;3.50;67.10
39777;DHT22;25453;48.162;14.510;2024-01-15T12:15:12;3.60;67.00
39777;DHT22;25453;48.162;14.510;2024-01-15T12:17:39;3.60;67.10
39777;DHT22;25453;48.162;14.510;2024-01-15T12:20:08;3.70;66.40
39777;DHT22;25453;48.162;14.510;2024-01-15T12:22:36;3.70;66.20
39777;DHT22;25453;48.162;14.510;2024-01-15T12:25:26;3.70;66.10
39777;DHT22;25453;48.162;14.510;2024-01-15T12:27:56;3.70;65.70
39777;DHT22;25453;48.162;14.510;2024-01-15T12:30:23;3.70;65.50
39777;DHT22;25453;48.162;14.510;2024-01-15T12:32:51;3.70;65.60
39777;DHT22;25453;48.162;14.510;2024-01-15T12:35:18;3.70;65.50
39777;DHT22;25453;48.162;14.510;2024-01-15T12:37:46;3.70;65.20
39777;DHT22;25453;48.162;14.510;2024-01-15T12:40:19;3.70;65.00
39777;DHT22;25453;48.162;14.510;2024-01-15T12:42:46;3.70;64.50
39777;DHT22;25453;48.162;14.510;2024-01-15T12:45:14;3.70;64.60
39777;DHT22;25453;48.162;14.510;2024-01-15T12:47:42;3.70;64.50
39777;DHT22;25453;48.162;14.510;2024-01-15T12:50:10;3.70;64.40
39777;DHT22;25453;48.162;14.510;2024-01-15T12:52:46;3.70;63.70
39777;DHT22;25453;48.162;14.510;2024-01-15T12:55:14;3.70;63.90
39777;DHT22;25453;48.162;14.510;2024-01-15T12:57:42;3.70;63.80
39777;DHT22;25453;48.162;14.510;2024-01-15T13:00:10;3.60;64.00
39777;DHT22;25453;48.162;14.510;2024-01-15T13:02:44;3.60;64.00
39777;DHT22;25453;48.162;14.510;2024-01-15T13:05:12;3.60;63.90
39777;DHT22;25453;48.162;14.510;2024-01-15T13:07:41;3.70;63.80
39777;DHT22;25453;48.162;14.510;2024-01-15T13:10:10;3.70;63.60
39777;DHT22;25453;48.162;14.510;2024-01-15T13:12:38;3.70;63.70
39777;DHT22;25453;48.162;14.510;2024-01-15T13:15:06;3.70;63.60
39777;DHT22;25453;48.162;14.510;2024-01-15T13:17:41;3.70;63.60
39777;DHT22;25453;48.162;14.510;2024-01-15T13:20:09;3.70;63.50
39777;DHT22;25453;48.162;14.510;2024-01-15T13:22:50;3.70;63.60
39777;DHT22;25453;48.162;14.510;2024-01-15T13:25:24;3.70;63.40
39777;DHT22;25453;48.162;14.510;2024-01-15T13:27:55;3.70;63.40
39777;DHT22;25453;48.162;14.510;2024-01-15T13:30:24;3.70;63.30
39777;DHT22;25453;48.162;14.510;2024-01-15T13:32:52;3.70;63.30
39777;DHT22;25453;48.162;14.510;2024-01-15T13:35:25;3.70;63.20
39777;DHT22;25453;48.162;14.510;2024-01-15T13:37:54;3.70;63.10
39777;DHT22;25453;48.162;14.510;2024-01-15T13:40:24;3.70;63.00
39777;DHT22;25453;48.162;14.510;2024-01-15T13:42:55;3.70;62.80
39777;DHT22;25453;48.162;14.510;2024-01-15T13:45:24;3.70;62.70
39777;DHT22;25453;48.162;14.510;2024-01-15T13:47:51;3.70;62.60
39777;DHT22;25453;48.162;14.510;2024-01-15T13:50:18;3.60;62.60
39777;DHT22;25453;48.162;14.510;2024-01-15T13:52:51;3.60;62.30
39777;DHT22;25453;48.162;14.510;2024-01-15T13:55:18;3.60;62.30
39777;DHT22;25453;48.162;14.510;2024-01-15T13:57:48;3.60;62.30
39777;DHT22;25453;48.162;14.510;2024-01-15T14:00:17;3.60;62.40
39777;DHT22;25453;48.162;14.510;2024-01-15T14:02:47;3.60;62.40
39777;DHT22;25453;48.162;14.510;2024-01-15T14:05:15;3.70;62.30
39777;DHT22;25453;48.162;14.510;2024-01-15T14:07:43;3.70;62.20
39777;DHT22;25453;48.162;14.510;2024-01-15T14:10:10;3.60;62.10
39777;DHT22;25453;48.162;14.510;2024-01-15T14:12:37;3.60;62.10
39777;DHT22;25453;48.162;14.510;2024-01-15T14:15:05;3.60;62.20
39777;DHT22;25453;48.162;14.510;2024-01-15T14:17:33;3.60;62.10
39777;DHT22;25453;48.162;14.510;2024-01-15T14:20:01;3.60;62.20
39777;DHT22;25453;48.162;14.510;2024-01-15T14:22:28;3.60;62.20
39777;DHT22;25453;48.162;14.510;2024-01-15T14:24:55;3.60;62.20
39777;DHT22;25453;48.162;14.510;2024-01-15T14:27:23;3.50;62.30
39777;DHT22;25453;48.162;14.510;2024-01-15T14:29:50;3.50;62.30
39777;DHT22;25453;48.162;14.510;2024-01-15T14:32:17;3.50;62.30
39777;DHT22;25453;48.162;14.510;2024-01-15T14:34:45;3.50;62.40
39777;DHT22;25453;48.162;14.510;2024-01-15T14:37:12;3.50;62.60
39777;DHT22;25453;48.162;14.510;2024-01-15T14:39:39;3.50;62.40
39777;DHT22;25453;48.162;14.510;2024-01-15T14:42:06;3.50;62.30
39777;DHT22;25453;48.162;14.510;2024-01-15T14:44:34;3.50;62.40
39777;DHT22;25453;48.162;14.510;2024-01-15T14:47:01;3.50;62.30
39777;DHT22;25453;48.162;14.510;2024-01-15T14:49:30;3.50;62.30
39777;DHT22;25453;48.162;14.510;2024-01-15T14:51:58;3.50;62.40
39777;DHT22;25453;48.162;14.510;2024-01-15T14:54:26;3.50;62.60
39777;DHT22;25453;48.162;14.510;2024-01-15T14:56:53;3.50;62.60
39777;DHT22;25453;48.162;14.510;2024-01-15T14:59:20;3.50;62.70
39777;DHT22;25453;48.162;14.510;2024-01-15T15:01:47;3.50;62.90
39777;DHT22;25453;48.162;14.510;2024-01-15T15:04:15;3.50;62.90
39777;DHT22;25453;48.162;14.510;2024-01-15T15:06:42;3.50;63.00
39777;DHT22;25453;48.162;14.510;2024-01-15T15:09:10;3.50;63.10
39777;DHT22;25453;48.162;14.510;2024-01-15T15:11:39;3.40;63.20
39777;DHT22;25453;48.162;14.510;2024-01-15T15:14:06;3.40;63.20
39777;DHT22;25453;48.162;14.510;2024-01-15T15:16:34;3.40;63.30
39777;DHT22;25453;48.162;14.510;2024-01-15T15:19:01;3.50;63.40
39777;DHT22;25453;48.162;14.510;2024-01-15T15:21:29;3.40;63.50
39777;DHT22;25453;48.162;14.510;2024-01-15T15:23:56;3.50;63.50
39777;DHT22;25453;48.162;14.510;2024-01-15T15:26:24;3.50;63.50
39777;DHT22;25453;48.162;14.510;2024-01-15T15:28:51;3.50;63.50
39777;DHT22;25453;48.162;14.510;2024-01-15T15:31:18;3.50;63.60
39777;DHT22;25453;48.162;14.510;2024-01-15T15:33:45;3.50;63.50
39777;DHT22;25453;48.162;14.510;2024-01-15T15:36:13;3.50;63.50
39777;DHT22;25453;48.162;14.510;2024-01-15T15:38:40;3.50;63.40
39777;DHT22;25453;48.162;14.510;2024-01-15T15:41:08;3.50;63.50
39777;DHT22;25453;48.162;14.510;2024-01-15T15:43:35;3.50;63.50
39777;DHT22;25453;48.162;14.510;2024-01-15T15:46:02;3.50;63.50
39777;DHT22;25453;48.162;14.510;2024-01-15T15:48:31;3.50;63.50
39777;DHT22;25453;48.162;14.510;2024-01-15T15:50:59;3.60;63.50
39777;DHT22;25453;48.162;14.510;2024-01-15T15:53:27;3.60;63.50